Rochester, Illinois
Current Conditions -  °F | °C
As of 1:52 PM on Wednesday 28 Jan 2015 (Local Time) from KSPI Reporting Station
Clear Clear  
Wind Chill: 34°   Ceiling: Unl
Heat Index: 42°   Visibility: 10mi
Dew Point: 31°   Wind: 17mph
Humidity: 65%   Direction: 160°SSE
Pressure: 30.05"   Gusts: 30mph
Location:  39.75°N, 89.53°W
Report Text: KSPI 281952Z 16015G26KT 10SM CLR 06/M01 A3005 RMK AO2 PK WND 14027/1917 SLP180 T00561006
Loading
Personal Weather Stations






























Interactive Weather Map New forecast layout! Learn more

10-Day Weather Forecast

Advertisements
Track Severe Weather on mobile